sensor_id;sensor_type;location;lat;lon;timestamp;pressure;altitude;pressure_sealevel;temperature;humidity
25430;BME280;13360;48.152;-1.788;2022-09-09T00:01:28;101673.19;;;19.30;100.00
25430;BME280;13360;48.152;-1.788;2022-09-09T00:06:31;101704.47;;;19.32;100.00
25430;BME280;13360;48.152;-1.788;2022-09-09T00:09:16;101693.28;;;19.32;100.00
25430;BME280;13360;48.152;-1.788;2022-09-09T00:11:58;101696.75;;;19.29;100.00
25430;BME280;13360;48.152;-1.788;2022-09-09T00:14:40;101706.31;;;19.19;100.00
25430;BME280;13360;48.152;-1.788;2022-09-09T00:17:16;101713.22;;;19.13;100.00
25430;BME280;13360;48.152;-1.788;2022-09-09T00:19:58;101730.38;;;19.21;100.00
25430;BME280;13360;48.152;-1.788;2022-09-09T00:22:29;101719.50;;;19.10;100.00
25430;BME280;13360;48.152;-1.788;2022-09-09T00:25:08;101736.47;;;19.14;100.00
25430;BME280;13360;48.152;-1.788;2022-09-09T00:27:45;101750.31;;;19.19;100.00
25430;BME280;13360;48.152;-1.788;2022-09-09T00:32:40;101745.19;;;19.21;100.00
25430;BME280;13360;48.152;-1.788;2022-09-09T00:37:52;101744.53;;;19.15;100.00
25430;BME280;13360;48.152;-1.788;2022-09-09T00:40:34;101750.97;;;19.07;100.00
25430;BME280;13360;48.152;-1.788;2022-09-09T00:43:12;101749.16;;;19.03;100.00
25430;BME280;13360;48.152;-1.788;2022-09-09T00:57:00;101742.41;;;18.95;100.00
25430;BME280;13360;48.152;-1.788;2022-09-09T01:01:56;101749.47;;;18.93;100.00
25430;BME280;13360;48.152;-1.788;2022-09-09T01:04:33;101760.19;;;18.91;100.00
25430;BME280;13360;48.152;-1.788;2022-09-09T01:07:10;101771.53;;;18.94;100.00
25430;BME280;13360;48.152;-1.788;2022-09-09T01:09:51;101772.88;;;18.97;100.00
25430;BME280;13360;48.152;-1.788;2022-09-09T01:15:08;101739.78;;;18.99;100.00
25430;BME280;13360;48.152;-1.788;2022-09-09T01:17:48;101734.66;;;19.01;100.00
25430;BME280;13360;48.152;-1.788;2022-09-09T01:20:29;101732.53;;;18.98;100.00
25430;BME280;13360;48.152;-1.788;2022-09-09T01:26:15;101715.91;;;19.01;100.00
25430;BME280;13360;48.152;-1.788;2022-09-09T01:28:46;101700.72;;;18.94;100.00
25430;BME280;13360;48.152;-1.788;2022-09-09T01:31:17;101704.69;;;18.93;100.00
25430;BME280;13360;48.152;-1.788;2022-09-09T01:33:44;101712.59;;;18.91;100.00
25430;BME280;13360;48.152;-1.788;2022-09-09T01:36:24;101695.31;;;18.80;100.00
25430;BME280;13360;48.152;-1.788;2022-09-09T01:38:52;101712.75;;;18.85;100.00
25430;BME280;13360;48.152;-1.788;2022-09-09T01:41:18;101704.84;;;18.87;100.00
25430;BME280;13360;48.152;-1.788;2022-09-09T01:43:43;101704.38;;;18.85;100.00
25430;BME280;13360;48.152;-1.788;2022-09-09T01:46:09;101702.22;;;18.82;100.00
25430;BME280;13360;48.152;-1.788;2022-09-09T01:48:35;101717.69;;;18.88;100.00
25430;BME280;13360;48.152;-1.788;2022-09-09T01:51:00;101718.69;;;18.84;100.00
25430;BME280;13360;48.152;-1.788;2022-09-09T01:53:26;101713.09;;;18.84;100.00
25430;BME280;13360;48.152;-1.788;2022-09-09T02:06:53;101745.69;;;18.80;100.00
25430;BME280;13360;48.152;-1.788;2022-09-09T02:09:23;101758.69;;;18.76;100.00
25430;BME280;13360;48.152;-1.788;2022-09-09T02:11:55;101770.56;;;18.81;100.00
25430;BME280;13360;48.152;-1.788;2022-09-09T02:14:28;101783.88;;;18.84;100.00
25430;BME280;13360;48.152;-1.788;2022-09-09T02:17:02;101785.53;;;18.85;100.00
25430;BME280;13360;48.152;-1.788;2022-09-09T02:19:30;101779.44;;;18.83;100.00
25430;BME280;13360;48.152;-1.788;2022-09-09T02:21:59;101774.84;;;18.79;100.00
25430;BME280;13360;48.152;-1.788;2022-09-09T02:24:27;101800.69;;;18.84;100.00
25430;BME280;13360;48.152;-1.788;2022-09-09T02:26:55;101800.03;;;18.87;100.00
25430;BME280;13360;48.152;-1.788;2022-09-09T02:29:33;101796.06;;;18.88;100.00
25430;BME280;13360;48.152;-1.788;2022-09-09T02:32:02;101803.69;;;18.97;100.00
25430;BME280;13360;48.152;-1.788;2022-09-09T02:34:31;101792.94;;;18.81;100.00
25430;BME280;13360;48.152;-1.788;2022-09-09T02:36:59;101809.41;;;18.92;100.00
25430;BME280;13360;48.152;-1.788;2022-09-09T02:39:26;101807.09;;;18.94;100.00
25430;BME280;13360;48.152;-1.788;2022-09-09T02:41:51;101796.72;;;18.94;100.00
25430;BME280;13360;48.152;-1.788;2022-09-09T02:44:18;101789.66;;;18.88;100.00
25430;BME280;13360;48.152;-1.788;2022-09-09T02:55:05;101834.44;;;18.88;100.00
25430;BME280;13360;48.152;-1.788;2022-09-09T02:57:33;101836.56;;;18.91;100.00
25430;BME280;13360;48.152;-1.788;2022-09-09T02:59:59;101833.94;;;18.86;100.00
25430;BME280;13360;48.152;-1.788;2022-09-09T03:02:26;101838.56;;;18.91;100.00
25430;BME280;13360;48.152;-1.788;2022-09-09T03:04:51;101839.06;;;18.93;100.00
25430;BME280;13360;48.152;-1.788;2022-09-09T03:07:20;101844.84;;;18.96;100.00
25430;BME280;13360;48.152;-1.788;2022-09-09T03:09:46;101843.19;;;18.95;100.00
25430;BME280;13360;48.152;-1.788;2022-09-09T03:12:12;101850.75;;;18.86;100.00
25430;BME280;13360;48.152;-1.788;2022-09-09T03:14:38;101848.75;;;18.86;100.00
25430;BME280;13360;48.152;-1.788;2022-09-09T03:17:05;101853.16;;;18.70;100.00
25430;BME280;13360;48.152;-1.788;2022-09-09T03:19:31;101867.03;;;18.75;100.00
25430;BME280;13360;48.152;-1.788;2022-09-09T03:21:57;101889.25;;;18.80;100.00
25430;BME280;13360;48.152;-1.788;2022-09-09T03:24:23;101878.88;;;18.81;100.00
25430;BME280;13360;48.152;-1.788;2022-09-09T03:26:48;101879.38;;;18.74;100.00
25430;BME280;13360;48.152;-1.788;2022-09-09T03:29:15;101888.75;;;18.78;100.00
25430;BME280;13360;48.152;-1.788;2022-09-09T03:31:41;101886.63;;;18.75;100.00
25430;BME280;13360;48.152;-1.788;2022-09-09T03:34:07;101883.81;;;18.75;100.00
25430;BME280;13360;48.152;-1.788;2022-09-09T03:36:33;101887.88;;;18.69;100.00
25430;BME280;13360;48.152;-1.788;2022-09-09T03:38:58;101881.47;;;18.69;100.00
25430;BME280;13360;48.152;-1.788;2022-09-09T03:41:25;101886.06;;;18.65;100.00
25430;BME280;13360;48.152;-1.788;2022-09-09T03:43:51;101911.75;;;18.67;100.00
25430;BME280;13360;48.152;-1.788;2022-09-09T03:46:20;101904.69;;;18.69;100.00
25430;BME280;13360;48.152;-1.788;2022-09-09T03:48:46;101902.88;;;18.65;100.00
25430;BME280;13360;48.152;-1.788;2022-09-09T03:51:12;101898.59;;;18.67;100.00
25430;BME280;13360;48.152;-1.788;2022-09-09T03:53:38;101898.59;;;18.67;100.00
25430;BME280;13360;48.152;-1.788;2022-09-09T03:56:04;101907.34;;;18.74;100.00
25430;BME280;13360;48.152;-1.788;2022-09-09T03:58:32;101908.19;;;18.75;100.00
25430;BME280;13360;48.152;-1.788;2022-09-09T04:01:00;101896.16;;;18.74;100.00
25430;BME280;13360;48.152;-1.788;2022-09-09T04:03:26;101892.66;;;18.69;100.00
25430;BME280;13360;48.152;-1.788;2022-09-09T04:05:53;101901.22;;;18.64;100.00
25430;BME280;13360;48.152;-1.788;2022-09-09T04:08:19;101908.25;;;18.61;100.00
25430;BME280;13360;48.152;-1.788;2022-09-09T04:10:46;101913.34;;;18.59;100.00
25430;BME280;13360;48.152;-1.788;2022-09-09T04:13:13;101925.03;;;18.61;100.00
25430;BME280;13360;48.152;-1.788;2022-09-09T04:15:40;101920.41;;;18.56;100.00
25430;BME280;13360;48.152;-1.788;2022-09-09T04:18:05;101936.88;;;18.58;100.00
25430;BME280;13360;48.152;-1.788;2022-09-09T04:20:31;101934.59;;;18.60;100.00
25430;BME280;13360;48.152;-1.788;2022-09-09T04:22:56;101930.78;;;18.56;100.00
25430;BME280;13360;48.152;-1.788;2022-09-09T04:25:22;101935.22;;;18.57;100.00
25430;BME280;13360;48.152;-1.788;2022-09-09T04:27:47;101940.84;;;18.57;100.00
25430;BME280;13360;48.152;-1.788;2022-09-09T04:30:13;101932.56;;;18.52;100.00
25430;BME280;13360;48.152;-1.788;2022-09-09T04:32:38;101945.53;;;18.48;100.00
25430;BME280;13360;48.152;-1.788;2022-09-09T04:35:04;101956.72;;;18.48;100.00
25430;BME280;13360;48.152;-1.788;2022-09-09T04:37:29;101957.03;;;18.46;100.00
25430;BME280;13360;48.152;-1.788;2022-09-09T04:39:55;101968.41;;;18.50;100.00
25430;BME280;13360;48.152;-1.788;2022-09-09T04:42:21;101964.47;;;18.51;100.00
25430;BME280;13360;48.152;-1.788;2022-09-09T04:44:46;101961.16;;;18.49;100.00
25430;BME280;13360;48.152;-1.788;2022-09-09T04:47:12;101971.22;;;18.50;100.00
25430;BME280;13360;48.152;-1.788;2022-09-09T04:49:38;101978.09;;;18.44;100.00
25430;BME280;13360;48.152;-1.788;2022-09-09T04:52:03;101978.59;;;18.46;100.00
25430;BME280;13360;48.152;-1.788;2022-09-09T04:54:29;101985.50;;;18.40;100.00
25430;BME280;13360;48.152;-1.788;2022-09-09T04:56:54;101983.38;;;18.45;100.00
25430;BME280;13360;48.152;-1.788;2022-09-09T04:59:20;101974.66;;;18.47;100.00
25430;BME280;13360;48.152;-1.788;2022-09-09T05:01:47;101969.22;;;18.42;100.00
25430;BME280;13360;48.152;-1.788;2022-09-09T05:04:12;101970.50;;;18.36;100.00
25430;BME280;13360;48.152;-1.788;2022-09-09T05:06:39;101977.84;;;18.54;100.00
25430;BME280;13360;48.152;-1.788;2022-09-09T05:09:05;101947.56;;;18.56;100.00
25430;BME280;13360;48.152;-1.788;2022-09-09T05:11:31;101952.66;;;18.54;100.00
25430;BME280;13360;48.152;-1.788;2022-09-09T05:13:57;101950.94;;;18.44;100.00
25430;BME280;13360;48.152;-1.788;2022-09-09T05:16:23;102060.00;;;18.58;100.00
25430;BME280;13360;48.152;-1.788;2022-09-09T05:18:48;102038.44;;;18.58;100.00
25430;BME280;13360;48.152;-1.788;2022-09-09T05:21:16;102059.91;;;18.27;100.00
25430;BME280;13360;48.152;-1.788;2022-09-09T05:23:42;102058.13;;;18.09;100.00
25430;BME280;13360;48.152;-1.788;2022-09-09T05:26:12;102076.28;;;17.97;100.00
25430;BME280;13360;48.152;-1.788;2022-09-09T05:28:38;102099.50;;;18.20;100.00
25430;BME280;13360;48.152;-1.788;2022-09-09T05:31:06;102082.69;;;18.34;100.00
25430;BME280;13360;48.152;-1.788;2022-09-09T05:33:36;102074.69;;;18.41;100.00
25430;BME280;13360;48.152;-1.788;2022-09-09T05:36:04;102049.88;;;18.48;100.00
25430;BME280;13360;48.152;-1.788;2022-09-09T05:38:31;102039.69;;;18.52;100.00
25430;BME280;13360;48.152;-1.788;2022-09-09T05:40:58;102008.63;;;18.54;100.00
25430;BME280;13360;48.152;-1.788;2022-09-09T05:43:24;101977.31;;;18.52;100.00
25430;BME280;13360;48.152;-1.788;2022-09-09T05:46:04;101970.06;;;18.51;100.00
25430;BME280;13360;48.152;-1.788;2022-09-09T05:48:35;102004.28;;;18.48;100.00
25430;BME280;13360;48.152;-1.788;2022-09-09T05:51:01;102068.50;;;18.31;100.00
25430;BME280;13360;48.152;-1.788;2022-09-09T05:53:28;102092.66;;;18.26;100.00
25430;BME280;13360;48.152;-1.788;2022-09-09T05:56:02;102071.38;;;18.62;100.00
25430;BME280;13360;48.152;-1.788;2022-09-09T05:58:32;102003.09;;;18.63;100.00
25430;BME280;13360;48.152;-1.788;2022-09-09T06:01:12;101977.72;;;18.59;100.00
25430;BME280;13360;48.152;-1.788;2022-09-09T06:03:42;101955.53;;;18.63;100.00
25430;BME280;13360;48.152;-1.788;2022-09-09T06:06:13;101937.72;;;18.58;100.00
25430;BME280;13360;48.152;-1.788;2022-09-09T06:08:41;101912.84;;;18.57;100.00
25430;BME280;13360;48.152;-1.788;2022-09-09T06:13:35;101914.19;;;18.59;100.00
25430;BME280;13360;48.152;-1.788;2022-09-09T06:16:04;101910.06;;;18.57;100.00
25430;BME280;13360;48.152;-1.788;2022-09-09T06:18:30;101905.41;;;18.52;100.00
25430;BME280;13360;48.152;-1.788;2022-09-09T06:20:57;102072.78;;;18.73;100.00
25430;BME280;13360;48.152;-1.788;2022-09-09T06:23:23;102045.50;;;18.78;100.00
25430;BME280;13360;48.152;-1.788;2022-09-09T06:25:48;102003.44;;;18.70;100.00
25430;BME280;13360;48.152;-1.788;2022-09-09T06:28:15;101968.53;;;18.67;100.00
25430;BME280;13360;48.152;-1.788;2022-09-09T06:30:41;101980.38;;;18.64;100.00
25430;BME280;13360;48.152;-1.788;2022-09-09T06:33:06;101981.66;;;18.58;100.00
25430;BME280;13360;48.152;-1.788;2022-09-09T06:35:32;101980.19;;;18.61;100.00
25430;BME280;13360;48.152;-1.788;2022-09-09T06:37:57;101990.75;;;18.64;100.00
25430;BME280;13360;48.152;-1.788;2022-09-09T06:40:24;101987.81;;;18.69;100.00
25430;BME280;13360;48.152;-1.788;2022-09-09T06:42:49;102001.38;;;18.75;100.00
25430;BME280;13360;48.152;-1.788;2022-09-09T06:45:14;101988.63;;;18.69;100.00
25430;BME280;13360;48.152;-1.788;2022-09-09T06:47:40;102021.13;;;18.79;100.00
25430;BME280;13360;48.152;-1.788;2022-09-09T06:50:06;101992.97;;;18.75;100.00
25430;BME280;13360;48.152;-1.788;2022-09-09T06:52:32;102007.56;;;18.72;100.00
25430;BME280;13360;48.152;-1.788;2022-09-09T06:54:58;102001.38;;;18.75;100.00
25430;BME280;13360;48.152;-1.788;2022-09-09T06:57:24;102022.97;;;18.83;100.00
25430;BME280;13360;48.152;-1.788;2022-09-09T06:59:49;102033.50;;;18.86;100.00
25430;BME280;13360;48.152;-1.788;2022-09-09T07:02:15;102054.34;;;19.03;100.00
25430;BME280;13360;48.152;-1.788;2022-09-09T07:04:40;102077.47;;;19.17;100.00
25430;BME280;13360;48.152;-1.788;2022-09-09T07:07:06;102031.47;;;19.09;100.00
25430;BME280;13360;48.152;-1.788;2022-09-09T07:09:32;102026.03;;;19.13;100.00
25430;BME280;13360;48.152;-1.788;2022-09-09T07:11:58;102017.53;;;19.18;100.00
25430;BME280;13360;48.152;-1.788;2022-09-09T07:14:24;102016.22;;;19.24;100.00
25430;BME280;13360;48.152;-1.788;2022-09-09T07:16:50;102000.72;;;19.18;100.00
25430;BME280;13360;48.152;-1.788;2022-09-09T07:19:15;102000.06;;;19.21;100.00
25430;BME280;13360;48.152;-1.788;2022-09-09T07:21:41;101998.41;;;19.20;100.00
25430;BME280;13360;48.152;-1.788;2022-09-09T07:24:06;101996.94;;;19.23;100.00
25430;BME280;13360;48.152;-1.788;2022-09-09T07:26:36;101983.91;;;19.18;100.00
25430;BME280;13360;48.152;-1.788;2022-09-09T07:29:02;101993.63;;;19.21;100.00
25430;BME280;13360;48.152;-1.788;2022-09-09T07:31:35;101998.25;;;19.25;100.00
25430;BME280;13360;48.152;-1.788;2022-09-09T07:34:02;102007.66;;;19.29;100.00
25430;BME280;13360;48.152;-1.788;2022-09-09T07:36:33;101996.09;;;19.22;100.00
25430;BME280;13360;48.152;-1.788;2022-09-09T07:39:04;101992.00;;;19.28;100.00
25430;BME280;13360;48.152;-1.788;2022-09-09T07:41:41;101971.56;;;19.28;100.00
25430;BME280;13360;48.152;-1.788;2022-09-09T07:44:25;101971.41;;;19.24;100.00
25430;BME280;13360;48.152;-1.788;2022-09-09T07:46:52;101993.31;;;19.31;100.00
25430;BME280;13360;48.152;-1.788;2022-09-09T07:49:17;101964.81;;;19.29;100.00
25430;BME280;13360;48.152;-1.788;2022-09-09T07:51:45;101964.03;;;19.37;100.00
25430;BME280;13360;48.152;-1.788;2022-09-09T07:54:13;101968.97;;;19.40;100.00
25430;BME280;13360;48.152;-1.788;2022-09-09T07:56:39;101990.59;;;19.57;100.00
25430;BME280;13360;48.152;-1.788;2022-09-09T07:59:06;101969.69;;;19.63;100.00
25430;BME280;13360;48.152;-1.788;2022-09-09T08:01:34;101969.69;;;19.71;100.00
25430;BME280;13360;48.152;-1.788;2022-09-09T08:04:10;101953.03;;;19.58;100.00
25430;BME280;13360;48.152;-1.788;2022-09-09T08:06:41;101944.75;;;19.53;100.00
25430;BME280;13360;48.152;-1.788;2022-09-09T08:09:08;101970.47;;;19.55;100.00
25430;BME280;13360;48.152;-1.788;2022-09-09T08:11:35;101946.88;;;19.47;100.00
25430;BME280;13360;48.152;-1.788;2022-09-09T08:14:01;101948.69;;;19.52;100.00
25430;BME280;13360;48.152;-1.788;2022-09-09T08:16:29;101926.13;;;19.48;100.00
25430;BME280;13360;48.152;-1.788;2022-09-09T08:18:56;101924.63;;;19.50;100.00
25430;BME280;13360;48.152;-1.788;2022-09-09T08:21:23;101912.28;;;19.43;100.00
25430;BME280;13360;48.152;-1.788;2022-09-09T08:23:51;101932.53;;;19.48;100.00
25430;BME280;13360;48.152;-1.788;2022-09-09T08:26:31;101958.13;;;19.56;100.00
25430;BME280;13360;48.152;-1.788;2022-09-09T08:28:58;101931.38;;;19.49;100.00
25430;BME280;13360;48.152;-1.788;2022-09-09T08:33:54;101938.84;;;19.63;100.00
25430;BME280;13360;48.152;-1.788;2022-09-09T08:36:22;101919.88;;;19.68;100.00
25430;BME280;13360;48.152;-1.788;2022-09-09T08:38:55;101927.47;;;19.76;100.00
25430;BME280;13360;48.152;-1.788;2022-09-09T08:41:41;101933.09;;;19.85;100.00
25430;BME280;13360;48.152;-1.788;2022-09-09T08:44:19;101924.19;;;19.83;100.00
25430;BME280;13360;48.152;-1.788;2022-09-09T08:46:49;101921.50;;;19.95;100.00
25430;BME280;13360;48.152;-1.788;2022-09-09T08:51:56;101910.09;;;20.18;100.00
25430;BME280;13360;48.152;-1.788;2022-09-09T08:54:22;101927.53;;;20.49;100.00
25430;BME280;13360;48.152;-1.788;2022-09-09T08:56:48;101911.31;;;20.63;100.00
25430;BME280;13360;48.152;-1.788;2022-09-09T08:59:17;101890.50;;;20.64;100.00
25430;BME280;13360;48.152;-1.788;2022-09-09T09:02:09;101878.59;;;20.67;100.00
25430;BME280;13360;48.152;-1.788;2022-09-09T09:05:22;101869.69;;;20.65;100.00
25430;BME280;13360;48.152;-1.788;2022-09-09T09:13:11;101881.44;;;20.59;100.00
25430;BME280;13360;48.152;-1.788;2022-09-09T09:15:38;101867.38;;;20.59;100.00
25430;BME280;13360;48.152;-1.788;2022-09-09T09:18:10;101865.03;;;20.69;100.00
25430;BME280;13360;48.152;-1.788;2022-09-09T09:21:05;101856.81;;;20.64;100.00
25430;BME280;13360;48.152;-1.788;2022-09-09T09:23:56;101861.59;;;20.64;100.00
25430;BME280;13360;48.152;-1.788;2022-09-09T09:26:25;101857.03;;;20.80;100.00
25430;BME280;13360;48.152;-1.788;2022-09-09T09:28:56;101857.59;;;21.03;100.00
25430;BME280;13360;48.152;-1.788;2022-09-09T09:31:22;101831.81;;;21.43;100.00
25430;BME280;13360;48.152;-1.788;2022-09-09T09:33:54;101820.44;;;21.60;100.00
25430;BME280;13360;48.152;-1.788;2022-09-09T09:36:24;101799.66;;;21.85;100.00
25430;BME280;13360;48.152;-1.788;2022-09-09T09:38:56;101793.31;;;22.34;100.00
25430;BME280;13360;48.152;-1.788;2022-09-09T09:41:42;101752.50;;;22.28;100.00
25430;BME280;13360;48.152;-1.788;2022-09-09T09:44:31;101715.88;;;22.03;100.00
25430;BME280;13360;48.152;-1.788;2022-09-09T09:47:14;101706.53;;;21.87;100.00
25430;BME280;13360;48.152;-1.788;2022-09-09T09:49:54;101684.56;;;21.56;100.00
25430;BME280;13360;48.152;-1.788;2022-09-09T09:52:25;101702.66;;;21.91;100.00
25430;BME280;13360;48.152;-1.788;2022-09-09T09:54:52;101711.06;;;22.04;100.00
25430;BME280;13360;48.152;-1.788;2022-09-09T09:57:18;101741.09;;;22.48;100.00
25430;BME280;13360;48.152;-1.788;2022-09-09T09:59:48;101704.25;;;23.06;100.00
25430;BME280;13360;48.152;-1.788;2022-09-09T10:04:44;101569.22;;;23.45;100.00
25430;BME280;13360;48.152;-1.788;2022-09-09T10:07:21;101539.22;;;23.68;100.00
25430;BME280;13360;48.152;-1.788;2022-09-09T10:09:55;101516.72;;;23.71;100.00
25430;BME280;13360;48.152;-1.788;2022-09-09T10:18:30;101505.03;;;23.06;100.00
25430;BME280;13360;48.152;-1.788;2022-09-09T10:24:24;101526.22;;;22.57;100.00
25430;BME280;13360;48.152;-1.788;2022-09-09T10:40:39;101682.84;;;22.00;100.00
25430;BME280;13360;48.152;-1.788;2022-09-09T10:45:48;101728.75;;;21.80;100.00
25430;BME280;13360;48.152;-1.788;2022-09-09T10:51:05;101783.75;;;21.89;100.00
25430;BME280;13360;48.152;-1.788;2022-09-09T10:53:50;101823.13;;;22.02;100.00
25430;BME280;13360;48.152;-1.788;2022-09-09T10:56:20;101849.22;;;22.23;100.00
25430;BME280;13360;48.152;-1.788;2022-09-09T10:58:53;101851.13;;;22.31;100.00
25430;BME280;13360;48.152;-1.788;2022-09-09T11:01:56;101837.78;;;22.28;100.00
25430;BME280;13360;48.152;-1.788;2022-09-09T11:04:27;101847.03;;;22.41;100.00
25430;BME280;13360;48.152;-1.788;2022-09-09T11:06:59;101800.00;;;22.29;100.00
25430;BME280;13360;48.152;-1.788;2022-09-09T11:09:32;101744.41;;;22.14;100.00
25430;BME280;13360;48.152;-1.788;2022-09-09T11:12:01;101753.91;;;22.21;100.00
25430;BME280;13360;48.152;-1.788;2022-09-09T11:14:41;101780.31;;;22.29;100.00
25430;BME280;13360;48.152;-1.788;2022-09-09T11:17:24;101708.88;;;22.21;100.00
25430;BME280;13360;48.152;-1.788;2022-09-09T11:19:52;101706.91;;;22.22;100.00
25430;BME280;13360;48.152;-1.788;2022-09-09T11:30:19;101721.44;;;22.36;100.00
25430;BME280;13360;48.152;-1.788;2022-09-09T11:33:24;101667.25;;;22.27;100.00
25430;BME280;13360;48.152;-1.788;2022-09-09T11:38:49;101620.38;;;22.31;100.00
25430;BME280;13360;48.152;-1.788;2022-09-09T11:41:17;101637.91;;;22.40;100.00
25430;BME280;13360;48.152;-1.788;2022-09-09T11:43:54;101677.31;;;22.52;100.00
25430;BME280;13360;48.152;-1.788;2022-09-09T11:46:22;101642.72;;;22.52;100.00
25430;BME280;13360;48.152;-1.788;2022-09-09T11:49:01;101712.78;;;22.29;100.00
25430;BME280;13360;48.152;-1.788;2022-09-09T11:51:29;101641.09;;;22.39;100.00
25430;BME280;13360;48.152;-1.788;2022-09-09T11:54:00;101606.28;;;22.31;100.00
25430;BME280;13360;48.152;-1.788;2022-09-09T11:56:42;101587.59;;;22.11;100.00
25430;BME280;13360;48.152;-1.788;2022-09-09T12:01:44;101585.78;;;22.18;100.00
25430;BME280;13360;48.152;-1.788;2022-09-09T12:04:21;101557.19;;;22.16;100.00
25430;BME280;13360;48.152;-1.788;2022-09-09T12:06:55;101571.81;;;22.22;100.00
25430;BME280;13360;48.152;-1.788;2022-09-09T12:09:22;101580.28;;;22.22;100.00
25430;BME280;13360;48.152;-1.788;2022-09-09T12:11:50;101558.03;;;22.17;100.00
25430;BME280;13360;48.152;-1.788;2022-09-09T12:14:34;101584.16;;;22.17;100.00
25430;BME280;13360;48.152;-1.788;2022-09-09T12:19:41;101578.63;;;22.21;100.00
25430;BME280;13360;48.152;-1.788;2022-09-09T12:22:18;101573.25;;;22.16;100.00
25430;BME280;13360;48.152;-1.788;2022-09-09T12:25:00;101607.03;;;22.16;100.00
25430;BME280;13360;48.152;-1.788;2022-09-09T12:27:43;101600.56;;;22.15;100.00
25430;BME280;13360;48.152;-1.788;2022-09-09T12:30:14;101608.75;;;22.20;100.00
25430;BME280;13360;48.152;-1.788;2022-09-09T12:32:40;101573.94;;;22.25;100.00
25430;BME280;13360;48.152;-1.788;2022-09-09T12:35:20;101615.19;;;22.33;100.00
25430;BME280;13360;48.152;-1.788;2022-09-09T12:40:24;101570.66;;;22.23;100.00
25430;BME280;13360;48.152;-1.788;2022-09-09T12:42:50;101550.66;;;22.12;100.00
25430;BME280;13360;48.152;-1.788;2022-09-09T12:45:24;101552.19;;;22.10;100.00
25430;BME280;13360;48.152;-1.788;2022-09-09T12:47:55;101578.06;;;22.15;100.00
25430;BME280;13360;48.152;-1.788;2022-09-09T12:50:33;101652.72;;;22.37;100.00
25430;BME280;13360;48.152;-1.788;2022-09-09T12:53:03;101628.28;;;22.54;100.00
25430;BME280;13360;48.152;-1.788;2022-09-09T12:55:35;101596.13;;;22.55;100.00
25430;BME280;13360;48.152;-1.788;2022-09-09T12:58:03;101626.63;;;22.52;100.00
25430;BME280;13360;48.152;-1.788;2022-09-09T13:00:30;101583.25;;;22.41;100.00
25430;BME280;13360;48.152;-1.788;2022-09-09T13:03:16;101590.91;;;22.41;100.00
25430;BME280;13360;48.152;-1.788;2022-09-09T13:05:41;101598.31;;;22.33;100.00
25430;BME280;13360;48.152;-1.788;2022-09-09T13:08:11;101580.56;;;22.45;100.00
25430;BME280;13360;48.152;-1.788;2022-09-09T13:10:46;101562.84;;;22.44;100.00
25430;BME280;13360;48.152;-1.788;2022-09-09T13:13:17;101655.25;;;22.55;100.00
25430;BME280;13360;48.152;-1.788;2022-09-09T13:16:04;101627.63;;;22.32;100.00
25430;BME280;13360;48.152;-1.788;2022-09-09T13:18:35;101580.19;;;22.46;100.00
25430;BME280;13360;48.152;-1.788;2022-09-09T13:21:03;101579.63;;;22.41;100.00
25430;BME280;13360;48.152;-1.788;2022-09-09T13:23:34;101670.78;;;22.36;100.00
25430;BME280;13360;48.152;-1.788;2022-09-09T13:26:23;101768.31;;;22.20;100.00
25430;BME280;13360;48.152;-1.788;2022-09-09T13:28:51;101855.19;;;22.09;100.00
25430;BME280;13360;48.152;-1.788;2022-09-09T13:33:53;101962.34;;;21.96;100.00
25430;BME280;13360;48.152;-1.788;2022-09-09T13:36:29;101995.09;;;21.79;100.00
25430;BME280;13360;48.152;-1.788;2022-09-09T13:38:56;102030.94;;;21.82;100.00
25430;BME280;13360;48.152;-1.788;2022-09-09T13:41:42;102065.03;;;21.81;100.00
25430;BME280;13360;48.152;-1.788;2022-09-09T13:44:25;102100.03;;;21.71;100.00
25430;BME280;13360;48.152;-1.788;2022-09-09T13:47:06;102143.16;;;21.75;100.00
25430;BME280;13360;48.152;-1.788;2022-09-09T13:49:32;102152.22;;;21.81;100.00
25430;BME280;13360;48.152;-1.788;2022-09-09T13:52:09;102174.00;;;21.92;100.00
25430;BME280;13360;48.152;-1.788;2022-09-09T13:54:35;102182.94;;;21.95;100.00
25430;BME280;13360;48.152;-1.788;2022-09-09T13:57:00;102179.63;;;21.92;100.00
25430;BME280;13360;48.152;-1.788;2022-09-09T13:59:26;102210.03;;;21.99;100.00
25430;BME280;13360;48.152;-1.788;2022-09-09T14:01:52;102217.19;;;22.26;100.00
25430;BME280;13360;48.152;-1.788;2022-09-09T14:04:18;102217.16;;;22.35;100.00
25430;BME280;13360;48.152;-1.788;2022-09-09T14:06:46;102226.91;;;22.37;100.00
25430;BME280;13360;48.152;-1.788;2022-09-09T14:09:13;102213.41;;;22.22;100.00
25430;BME280;13360;48.152;-1.788;2022-09-09T14:11:38;102233.25;;;22.26;100.00
25430;BME280;13360;48.152;-1.788;2022-09-09T14:14:05;102260.00;;;22.40;100.00
25430;BME280;13360;48.152;-1.788;2022-09-09T14:16:31;102256.69;;;22.38;100.00
25430;BME280;13360;48.152;-1.788;2022-09-09T14:18:56;102260.81;;;22.41;100.00
25430;BME280;13360;48.152;-1.788;2022-09-09T14:21:23;102248.94;;;22.35;100.00
25430;BME280;13360;48.152;-1.788;2022-09-09T14:23:48;102261.72;;;22.33;100.00
25430;BME280;13360;48.152;-1.788;2022-09-09T14:26:14;102254.81;;;22.21;100.00
25430;BME280;13360;48.152;-1.788;2022-09-09T14:28:39;102279.75;;;22.32;100.00
25430;BME280;13360;48.152;-1.788;2022-09-09T14:31:06;102274.66;;;22.25;100.00
25430;BME280;13360;48.152;-1.788;2022-09-09T14:33:32;102176.63;;;21.98;100.00
25430;BME280;13360;48.152;-1.788;2022-09-09T14:35:59;102101.56;;;21.89;100.00
25430;BME280;13360;48.152;-1.788;2022-09-09T14:38:28;102055.53;;;21.94;100.00